Indianola, Oklahoma
Current Conditions -  °F | °C
As of 2:53 AM on Monday 20 Oct 2014 (Local Time) from KMLC Reporting Station
Clear Clear  
Wind Chill: 57°   Ceiling: Unl
Heat Index: 57°   Visibility: 10mi
Dew Point: 50°   Wind: 3mph
Humidity: 77%   Direction: 220°SW
Pressure: 30.06"   Gusts: NA
Location:  35.16°N, 95.77°W
Report Text: KMLC 200753Z AUTO 22003KT 10SM CLR 14/10 A3006 RMK AO2 SLP175 T01390100
Loading
Personal Weather Stations






























Interactive Weather Map
Tropical Storm Tracking
New forecast layout! Learn more

10-Day Weather Forecast

Advertisements
Track Severe Weather on mobile